sensor_id;sensor_type;location;lat;lon;timestamp;P1;durP1;ratioP1;P2;durP2;ratioP2
8359;SDS011;4217;48.762;11.428;2022-12-05T00:07:47;29.50;;;25.50;;
8359;SDS011;4217;48.762;11.428;2022-12-05T00:17:48;29.87;;;26.73;;
8359;SDS011;4217;48.762;11.428;2022-12-05T00:27:50;29.00;;;26.03;;
8359;SDS011;4217;48.762;11.428;2022-12-05T00:37:52;28.77;;;24.53;;
8359;SDS011;4217;48.762;11.428;2022-12-05T00:47:53;26.47;;;23.77;;
8359;SDS011;4217;48.762;11.428;2022-12-05T00:57:55;27.03;;;24.33;;
8359;SDS011;4217;48.762;11.428;2022-12-05T01:07:56;26.50;;;23.73;;
8359;SDS011;4217;48.762;11.428;2022-12-05T01:17:58;25.43;;;22.80;;
8359;SDS011;4217;48.762;11.428;2022-12-05T01:28:00;25.57;;;22.97;;
8359;SDS011;4217;48.762;11.428;2022-12-05T01:38:01;24.43;;;22.03;;
8359;SDS011;4217;48.762;11.428;2022-12-05T01:48:06;23.23;;;21.13;;
8359;SDS011;4217;48.762;11.428;2022-12-05T01:58:11;21.40;;;19.57;;
8359;SDS011;4217;48.762;11.428;2022-12-05T02:08:14;20.57;;;18.60;;
8359;SDS011;4217;48.762;11.428;2022-12-05T02:39:16;15.57;;;14.17;;
8359;SDS011;4217;48.762;11.428;2022-12-05T02:49:28;15.63;;;14.37;;
8359;SDS011;4217;48.762;11.428;2022-12-05T02:59:33;16.67;;;15.27;;
8359;SDS011;4217;48.762;11.428;2022-12-05T03:09:54;17.37;;;15.90;;
8359;SDS011;4217;48.762;11.428;2022-12-05T03:20:18;18.50;;;16.90;;
8359;SDS011;4217;48.762;11.428;2022-12-05T03:30:24;18.77;;;17.03;;
8359;SDS011;4217;48.762;11.428;2022-12-05T03:40:28;21.20;;;19.23;;
8359;SDS011;4217;48.762;11.428;2022-12-05T03:50:36;19.13;;;17.40;;
8359;SDS011;4217;48.762;11.428;2022-12-05T04:00:42;19.40;;;17.63;;
8359;SDS011;4217;48.762;11.428;2022-12-05T04:10:47;21.73;;;19.73;;
8359;SDS011;4217;48.762;11.428;2022-12-05T04:20:52;22.90;;;20.70;;
8359;SDS011;4217;48.762;11.428;2022-12-05T04:41:18;26.07;;;23.53;;
8359;SDS011;4217;48.762;11.428;2022-12-05T04:51:27;24.97;;;22.37;;
8359;SDS011;4217;48.762;11.428;2022-12-05T05:11:37;20.83;;;18.93;;
8359;SDS011;4217;48.762;11.428;2022-12-05T05:21:40;18.43;;;16.73;;
8359;SDS011;4217;48.762;11.428;2022-12-05T05:31:42;19.17;;;17.43;;
8359;SDS011;4217;48.762;11.428;2022-12-05T05:41:45;16.90;;;15.50;;
8359;SDS011;4217;48.762;11.428;2022-12-05T05:51:46;18.07;;;16.43;;
8359;SDS011;4217;48.762;11.428;2022-12-05T06:01:48;15.50;;;14.23;;
8359;SDS011;4217;48.762;11.428;2022-12-05T06:11:49;15.43;;;14.03;;
8359;SDS011;4217;48.762;11.428;2022-12-05T06:21:51;15.07;;;13.83;;
8359;SDS011;4217;48.762;11.428;2022-12-05T06:31:52;15.60;;;14.30;;
8359;SDS011;4217;48.762;11.428;2022-12-05T06:41:54;15.60;;;14.27;;
8359;SDS011;4217;48.762;11.428;2022-12-05T06:51:55;16.93;;;15.43;;
8359;SDS011;4217;48.762;11.428;2022-12-05T07:01:57;17.50;;;16.00;;
8359;SDS011;4217;48.762;11.428;2022-12-05T07:11:58;18.13;;;16.47;;
8359;SDS011;4217;48.762;11.428;2022-12-05T07:22:00;18.73;;;17.00;;
8359;SDS011;4217;48.762;11.428;2022-12-05T07:32:02;19.97;;;18.27;;
8359;SDS011;4217;48.762;11.428;2022-12-05T07:42:04;17.37;;;15.87;;
8359;SDS011;4217;48.762;11.428;2022-12-05T07:52:06;17.63;;;16.13;;
8359;SDS011;4217;48.762;11.428;2022-12-05T08:02:07;17.60;;;16.00;;
8359;SDS011;4217;48.762;11.428;2022-12-05T08:12:09;16.10;;;14.70;;
8359;SDS011;4217;48.762;11.428;2022-12-05T08:22:11;14.60;;;13.40;;
8359;SDS011;4217;48.762;11.428;2022-12-05T08:32:12;15.77;;;14.37;;
8359;SDS011;4217;48.762;11.428;2022-12-05T08:42:14;16.67;;;15.10;;
8359;SDS011;4217;48.762;11.428;2022-12-05T08:52:15;17.07;;;15.57;;
8359;SDS011;4217;48.762;11.428;2022-12-05T09:02:17;18.47;;;16.77;;
8359;SDS011;4217;48.762;11.428;2022-12-05T09:12:18;20.33;;;18.30;;
8359;SDS011;4217;48.762;11.428;2022-12-05T09:22:20;22.30;;;20.10;;
8359;SDS011;4217;48.762;11.428;2022-12-05T09:32:24;20.70;;;18.80;;
8359;SDS011;4217;48.762;11.428;2022-12-05T09:42:52;22.33;;;20.13;;
8359;SDS011;4217;48.762;11.428;2022-12-05T10:14:01;23.00;;;20.70;;
8359;SDS011;4217;48.762;11.428;2022-12-05T10:24:14;22.70;;;20.37;;
8359;SDS011;4217;48.762;11.428;2022-12-05T10:34:32;22.47;;;20.17;;
8359;SDS011;4217;48.762;11.428;2022-12-05T10:44:39;21.43;;;19.33;;
8359;SDS011;4217;48.762;11.428;2022-12-05T10:54:53;21.30;;;19.20;;
8359;SDS011;4217;48.762;11.428;2022-12-05T11:05:01;18.70;;;16.73;;
8359;SDS011;4217;48.762;11.428;2022-12-05T11:25:29;19.80;;;17.80;;
8359;SDS011;4217;48.762;11.428;2022-12-05T11:35:36;18.90;;;17.20;;
8359;SDS011;4217;48.762;11.428;2022-12-05T12:06:26;17.77;;;16.17;;
8359;SDS011;4217;48.762;11.428;2022-12-05T12:57:51;21.90;;;20.00;;
8359;SDS011;4217;48.762;11.428;2022-12-05T13:08:04;21.37;;;19.43;;
8359;SDS011;4217;48.762;11.428;2022-12-05T13:18:17;20.53;;;18.70;;
8359;SDS011;4217;48.762;11.428;2022-12-05T13:28:30;22.93;;;20.93;;
8359;SDS011;4217;48.762;11.428;2022-12-05T13:38:42;22.87;;;20.77;;
8359;SDS011;4217;48.762;11.428;2022-12-05T13:49:03;21.90;;;19.87;;
8359;SDS011;4217;48.762;11.428;2022-12-05T14:09:53;23.27;;;21.27;;
8359;SDS011;4217;48.762;11.428;2022-12-05T14:41:10;25.10;;;22.83;;
8359;SDS011;4217;48.762;11.428;2022-12-05T15:11:43;24.73;;;22.63;;
8359;SDS011;4217;48.762;11.428;2022-12-05T15:21:46;25.60;;;23.47;;
8359;SDS011;4217;48.762;11.428;2022-12-05T15:41:59;22.93;;;20.83;;
8359;SDS011;4217;48.762;11.428;2022-12-05T15:52:15;24.20;;;22.20;;
8359;SDS011;4217;48.762;11.428;2022-12-05T16:02:34;20.33;;;18.67;;
8359;SDS011;4217;48.762;11.428;2022-12-05T16:12:46;21.97;;;20.17;;
8359;SDS011;4217;48.762;11.428;2022-12-05T16:22:50;21.93;;;20.13;;
8359;SDS011;4217;48.762;11.428;2022-12-05T16:33:04;21.63;;;19.90;;
8359;SDS011;4217;48.762;11.428;2022-12-05T16:53:32;21.13;;;19.37;;
8359;SDS011;4217;48.762;11.428;2022-12-05T17:03:35;22.13;;;20.33;;
8359;SDS011;4217;48.762;11.428;2022-12-05T17:13:36;21.37;;;19.57;;
8359;SDS011;4217;48.762;11.428;2022-12-05T17:23:38;22.37;;;20.57;;
8359;SDS011;4217;48.762;11.428;2022-12-05T17:33:48;24.27;;;22.07;;
8359;SDS011;4217;48.762;11.428;2022-12-05T17:43:51;23.43;;;21.53;;
8359;SDS011;4217;48.762;11.428;2022-12-05T17:53:52;25.97;;;23.67;;
8359;SDS011;4217;48.762;11.428;2022-12-05T18:03:54;24.97;;;22.83;;
8359;SDS011;4217;48.762;11.428;2022-12-05T18:13:56;24.87;;;22.57;;
8359;SDS011;4217;48.762;11.428;2022-12-05T18:24:00;23.63;;;21.63;;
8359;SDS011;4217;48.762;11.428;2022-12-05T18:34:01;20.70;;;18.83;;
8359;SDS011;4217;48.762;11.428;2022-12-05T18:44:03;24.83;;;22.73;;
8359;SDS011;4217;48.762;11.428;2022-12-05T18:54:04;20.93;;;19.33;;
8359;SDS011;4217;48.762;11.428;2022-12-05T19:04:07;22.27;;;20.50;;
8359;SDS011;4217;48.762;11.428;2022-12-05T19:14:12;21.17;;;19.47;;
8359;SDS011;4217;48.762;11.428;2022-12-05T19:24:15;20.03;;;18.43;;
8359;SDS011;4217;48.762;11.428;2022-12-05T19:34:19;23.20;;;21.20;;
8359;SDS011;4217;48.762;11.428;2022-12-05T19:44:21;23.67;;;21.83;;
8359;SDS011;4217;48.762;11.428;2022-12-05T19:54:22;24.57;;;22.60;;
8359;SDS011;4217;48.762;11.428;2022-12-05T20:04:24;23.10;;;21.10;;
8359;SDS011;4217;48.762;11.428;2022-12-05T20:14:25;22.60;;;20.70;;
8359;SDS011;4217;48.762;11.428;2022-12-05T20:24:27;23.23;;;21.47;;
8359;SDS011;4217;48.762;11.428;2022-12-05T20:34:29;21.83;;;20.13;;
8359;SDS011;4217;48.762;11.428;2022-12-05T20:44:30;18.77;;;17.37;;
8359;SDS011;4217;48.762;11.428;2022-12-05T20:54:36;18.20;;;16.80;;
8359;SDS011;4217;48.762;11.428;2022-12-05T21:04:37;18.53;;;17.13;;
8359;SDS011;4217;48.762;11.428;2022-12-05T21:14:41;17.43;;;16.20;;
8359;SDS011;4217;48.762;11.428;2022-12-05T21:24:42;17.43;;;16.23;;
8359;SDS011;4217;48.762;11.428;2022-12-05T21:34:44;15.93;;;14.83;;
8359;SDS011;4217;48.762;11.428;2022-12-05T21:44:45;15.87;;;14.67;;
8359;SDS011;4217;48.762;11.428;2022-12-05T21:54:47;15.33;;;14.23;;
8359;SDS011;4217;48.762;11.428;2022-12-05T22:04:48;17.60;;;16.40;;
8359;SDS011;4217;48.762;11.428;2022-12-05T22:14:50;17.17;;;16.07;;
8359;SDS011;4217;48.762;11.428;2022-12-05T22:24:51;18.17;;;16.87;;
8359;SDS011;4217;48.762;11.428;2022-12-05T22:34:53;16.07;;;15.03;;
8359;SDS011;4217;48.762;11.428;2022-12-05T22:45:02;16.37;;;15.37;;
8359;SDS011;4217;48.762;11.428;2022-12-05T22:55:04;17.70;;;16.50;;
8359;SDS011;4217;48.762;11.428;2022-12-05T23:05:06;18.43;;;17.10;;
8359;SDS011;4217;48.762;11.428;2022-12-05T23:15:08;22.90;;;21.20;;
8359;SDS011;4217;48.762;11.428;2022-12-05T23:25:10;18.70;;;17.30;;
8359;SDS011;4217;48.762;11.428;2022-12-05T23:35:11;18.63;;;17.33;;
8359;SDS011;4217;48.762;11.428;2022-12-05T23:45:13;17.83;;;16.63;;
8359;SDS011;4217;48.762;11.428;2022-12-05T23:55:15;15.97;;;14.97;;
